Time;durP1;ratioP1;P1;durP2;ratioP2;P2;SDS_P1;SDS_P2;PMS_P1;PMS_P2;Temp;Humidity;BMP_temperature;BMP_pressure;BME280_temperature;BME280_humidity;BME280_pressure;Samples;Min_cycle;Max_cycle;Signal;HPM_P1;HPM_P2
2022/07/13 00:01:26;;;;;;;1.70;0.45;;;;;;;18.91;45.09;100362.66;4397636;32;33890;-83
2022/07/13 00:03:54;;;;;;;2.58;0.50;;;;;;;18.98;45.03;100360.41;4414621;32;34210;-84
2022/07/13 00:06:22;;;;;;;0.20;0.20;;;;;;;19.11;44.77;100360.41;4405136;32;33286;-84
2022/07/13 00:08:50;;;;;;;0.65;0.40;;;;;;;19.08;44.90;100355.25;4377297;32;178097;-84
2022/07/13 00:11:18;;;;;;;1.65;0.40;;;;;;;19.00;45.36;100363.00;4407939;32;34848;-84
2022/07/13 00:13:47;;;;;;;1.62;0.55;;;;;;;19.00;45.42;100363.84;4398985;32;34195;-84
2022/07/13 00:16:15;;;;;;;0.62;0.37;;;;;;;19.01;45.58;100365.56;4413545;32;32980;-84
2022/07/13 00:18:43;;;;;;;2.78;0.40;;;;;;;18.81;46.19;100363.41;4402180;32;33955;-84
2022/07/13 00:21:10;;;;;;;2.30;0.30;;;;;;;18.87;45.98;100358.47;4408107;32;34292;-84
2022/07/13 00:23:40;;;;;;;0.68;0.40;;;;;;;18.83;46.15;100367.69;4404588;32;33320;-84
2022/07/13 00:26:09;;;;;;;0.22;0.22;;;;;;;18.64;46.66;100362.69;4398490;32;32197;-84
2022/07/13 00:28:37;;;;;;;0.32;0.30;;;;;;;18.73;46.56;100355.06;4389802;32;34300;-84
2022/07/13 00:31:05;;;;;;;2.40;0.40;;;;;;;18.60;46.93;100369.22;4403354;32;33633;-84
2022/07/13 00:33:33;;;;;;;0.50;0.30;;;;;;;18.42;47.78;100373.16;4400082;32;33049;-84
2022/07/13 00:36:00;;;;;;;1.45;0.60;;;;;;;18.50;47.20;100365.47;4392556;32;32748;-84
2022/07/13 00:38:30;;;;;;;2.37;0.45;;;;;;;18.50;47.18;100354.75;4387312;32;33558;-85
2022/07/13 00:40:59;;;;;;;0.45;0.30;;;;;;;18.47;47.21;100352.31;4409132;32;33769;-85
2022/07/13 00:43:28;;;;;;;1.17;0.30;;;;;;;18.35;47.41;100350.44;4402288;32;33568;-85
2022/07/13 00:45:56;;;;;;;0.52;0.40;;;;;;;18.17;48.42;100349.84;4388744;32;33339;-85
2022/07/13 00:48:24;;;;;;;0.93;0.50;;;;;;;18.37;47.78;100344.06;4398831;32;35621;-85
2022/07/13 00:50:53;;;;;;;0.62;0.40;;;;;;;18.45;47.51;100345.34;4402267;32;32516;-85
2022/07/13 00:53:23;;;;;;;4.25;0.50;;;;;;;18.37;48.05;100348.53;4403494;32;34386;-85
2022/07/13 00:55:52;;;;;;;2.65;0.50;;;;;;;18.31;48.44;100338.25;4391023;32;35188;-84
2022/07/13 00:58:20;;;;;;;5.03;0.40;;;;;;;18.23;48.74;100351.25;4384771;32;32942;-85
2022/07/13 01:00:48;;;;;;;1.05;0.50;;;;;;;18.26;48.66;100340.38;4391712;32;34159;-85
2022/07/13 01:03:17;;;;;;;0.80;0.50;;;;;;;18.19;48.85;100344.44;4392196;32;34384;-85
2022/07/13 01:05:46;;;;;;;0.75;0.40;;;;;;;18.05;49.27;100343.53;4391027;32;33129;-85
2022/07/13 01:08:14;;;;;;;4.47;0.60;;;;;;;17.98;49.80;100344.88;4404675;32;33379;-85
2022/07/13 01:10:42;;;;;;;0.75;0.40;;;;;;;17.72;50.28;100346.56;4392090;32;34672;-85
2022/07/13 01:13:11;;;;;;;4.43;0.40;;;;;;;18.00;49.47;100340.31;4390200;32;32973;-87
2022/07/13 01:15:39;;;;;;;0.43;0.43;;;;;;;17.80;49.72;100343.41;4388924;32;33258;-87
2022/07/13 01:18:12;;;;;;;1.50;0.50;;;;;;;17.83;49.49;100340.53;4384609;32;33946;-87
2022/07/13 01:20:43;;;;;;;1.08;0.32;;;;;;;17.57;50.10;100345.72;4391272;32;33332;-86
2022/07/13 01:23:14;;;;;;;0.73;0.40;;;;;;;17.71;50.03;100343.97;4382496;32;33670;-86
2022/07/13 01:25:43;;;;;;;0.40;0.40;;;;;;;17.50;50.52;100341.72;4372988;32;33134;-87
2022/07/13 01:28:14;;;;;;;0.98;0.75;;;;;;;17.47;50.59;100336.59;4377204;32;32562;-85
2022/07/13 01:30:45;;;;;;;1.83;0.55;;;;;;;17.55;50.55;100336.94;4384832;32;32921;-85
2022/07/13 01:33:13;;;;;;;1.62;0.25;;;;;;;17.49;50.57;100333.81;4391895;32;32455;-86
2022/07/13 01:35:41;;;;;;;2.80;0.60;;;;;;;17.76;50.14;100332.09;4387626;32;32538;-86
2022/07/13 01:38:10;;;;;;;1.45;0.60;;;;;;;17.62;50.73;100334.75;4403855;32;33581;-86
2022/07/13 01:40:41;;;;;;;0.50;0.47;;;;;;;17.44;51.61;100333.25;4377364;32;33552;-85
2022/07/13 01:43:09;;;;;;;1.55;0.60;;;;;;;17.55;51.05;100328.94;4374054;32;32791;-84
2022/07/13 01:45:39;;;;;;;0.98;0.50;;;;;;;17.38;51.73;100326.50;4390975;32;32806;-84
2022/07/13 01:48:08;;;;;;;1.10;0.80;;;;;;;17.38;51.95;100321.16;4379253;32;32621;-84
2022/07/13 01:50:35;;;;;;;2.85;1.52;;;;;;;17.48;51.86;100327.63;4386695;32;33382;-84
2022/07/13 01:53:05;;;;;;;5.57;0.70;;;;;;;17.50;51.67;100324.84;4412972;32;33904;-84
2022/07/13 01:55:34;;;;;;;1.67;0.40;;;;;;;17.49;51.61;100318.66;4387532;32;33348;-84
2022/07/13 01:58:02;;;;;;;0.80;0.40;;;;;;;17.26;52.01;100319.25;4381663;32;33782;-85
2022/07/13 02:00:30;;;;;;;2.40;0.88;;;;;;;17.31;51.88;100318.00;4413441;32;34327;-84
2022/07/13 02:02:58;;;;;;;1.77;0.50;;;;;;;17.43;51.80;100323.53;4411872;32;33597;-84
2022/07/13 02:05:28;;;;;;;1.55;0.68;;;;;;;17.13;52.51;100321.84;4375318;32;32428;-84
2022/07/13 02:07:56;;;;;;;4.03;0.73;;;;;;;16.86;53.34;100321.75;4384400;32;33558;-84
2022/07/13 02:10:37;;;;;;;2.90;0.65;;;;;;;16.80;52.98;100314.09;4397336;32;33674;-84
2022/07/13 02:13:08;;;;;;;1.30;0.98;;;;;;;16.92;52.75;100318.69;4385291;32;32963;-84
2022/07/13 02:15:36;;;;;;;2.65;0.88;;;;;;;17.04;52.28;100317.97;4401518;32;33129;-84
2022/07/13 02:18:06;;;;;;;0.73;0.62;;;;;;;17.06;52.29;100316.03;4386117;32;33377;-84
2022/07/13 02:20:34;;;;;;;3.37;0.70;;;;;;;17.13;52.36;100321.84;4391065;32;32993;-84
2022/07/13 02:23:05;;;;;;;3.53;1.12;;;;;;;17.07;52.60;100320.41;4397818;32;34493;-83
2022/07/13 02:25:33;;;;;;;1.95;1.25;;;;;;;17.04;52.68;100323.28;4373817;32;33511;-84
2022/07/13 02:28:02;;;;;;;2.50;1.00;;;;;;;16.85;53.29;100322.69;4396899;32;32224;-84
2022/07/13 02:30:31;;;;;;;2.67;1.10;;;;;;;16.83;53.36;100316.59;4375705;32;34377;-84
2022/07/13 02:33:01;;;;;;;4.80;1.40;;;;;;;16.75;53.72;100316.19;4411165;32;34380;-84
2022/07/13 02:35:29;;;;;;;2.22;1.20;;;;;;;16.72;54.00;100316.41;4385856;32;33169;-84
2022/07/13 02:37:58;;;;;;;1.95;1.37;;;;;;;16.75;53.90;100318.87;4411310;32;33354;-84
2022/07/13 02:40:26;;;;;;;1.62;0.93;;;;;;;16.72;54.08;100308.41;4388194;32;33535;-85
2022/07/13 02:42:55;;;;;;;4.50;1.25;;;;;;;16.72;53.83;100311.06;4395865;32;33604;-85
2022/07/13 02:45:24;;;;;;;3.08;0.98;;;;;;;16.46;54.85;100313.47;4378072;32;31718;-85
2022/07/13 02:47:54;;;;;;;2.33;0.88;;;;;;;16.56;54.31;100316.41;4407458;32;35348;-85
2022/07/13 02:50:22;;;;;;;2.90;1.15;;;;;;;16.49;54.41;100315.09;4370767;32;32680;-84
2022/07/13 02:52:53;;;;;;;1.40;1.00;;;;;;;16.55;54.28;100315.56;4413169;32;34288;-84
2022/07/13 02:55:22;;;;;;;;;;;;;;;16.50;54.24;100317.66;4403809;32;33120;-85
2022/07/13 02:57:50;;;;;;;5.37;1.30;;;;;;;16.54;53.90;100319.19;4412391;32;34692;-85
2022/07/13 03:00:18;;;;;;;2.60;1.42;;;;;;;16.32;54.55;100330.25;4400587;32;33999;-85
2022/07/13 03:02:50;;;;;;;2.75;1.30;;;;;;;16.51;54.15;100319.38;4389097;32;33177;-85
2022/07/13 03:05:18;;;;;;;4.50;2.00;;;;;;;16.63;53.86;100313.31;4398108;32;33401;-84
2022/07/13 03:07:46;;;;;;;1.62;1.15;;;;;;;16.53;54.15;100314.81;4411648;32;33854;-85
2022/07/13 03:10:16;;;;;;;2.42;1.30;;;;;;;16.39;54.48;100312.13;4388313;32;32598;-86
2022/07/13 03:12:44;;;;;;;1.60;0.98;;;;;;;16.10;55.25;100313.84;4407351;32;32648;-84
2022/07/13 03:15:12;;;;;;;6.03;1.60;;;;;;;16.21;55.25;100321.19;4384690;32;33096;-84
2022/07/13 03:17:41;;;;;;;1.77;1.10;;;;;;;16.26;55.24;100321.78;4398307;32;33960;-84
2022/07/13 03:20:10;;;;;;;2.00;1.77;;;;;;;16.11;55.51;100316.41;4400002;32;33758;-85
2022/07/13 03:22:38;;;;;;;6.03;1.23;;;;;;;15.93;56.34;100317.47;4402390;32;32651;-84
2022/07/13 03:25:07;;;;;;;3.60;1.20;;;;;;;16.00;55.98;100321.50;4398161;32;33354;-84
2022/07/13 03:27:37;;;;;;;3.50;1.70;;;;;;;16.39;55.12;100310.31;4384535;32;32347;-85
2022/07/13 03:30:07;;;;;;;3.95;1.95;;;;;;;16.06;56.04;100318.47;4399102;32;33012;-84
2022/07/13 03:32:35;;;;;;;4.07;1.62;;;;;;;16.22;55.72;100322.91;4385992;32;33149;-84
2022/07/13 03:35:03;;;;;;;4.37;1.75;;;;;;;16.02;56.70;100321.41;4397821;32;33420;-84
2022/07/13 03:37:32;;;;;;;2.42;1.48;;;;;;;16.16;56.43;100324.13;4398687;32;33532;-84
2022/07/13 03:40:06;;;;;;;;;;;;;;;16.23;55.84;100327.28;4401521;32;34729;-84
2022/07/13 03:42:37;;;;;;;7.65;3.03;;;;;;;16.45;55.58;100325.06;4409106;32;32874;-84
2022/07/13 03:47:45;;;;;;;7.07;1.58;;;;;;;16.40;56.26;100327.16;4399185;32;33193;-84
2022/07/13 03:50:13;;;;;;;5.50;2.03;;;;;;;16.78;55.71;100321.34;4388665;32;33184;-84
2022/07/13 03:52:45;;;;;;;8.75;2.45;;;;;;;16.55;56.22;100320.03;4398770;32;33873;-84
2022/07/13 03:55:14;;;;;;;8.52;1.90;;;;;;;16.56;56.43;100317.28;4398854;32;32587;-84
2022/07/13 03:57:43;;;;;;;4.60;1.80;;;;;;;16.77;55.84;100324.97;4399303;32;32950;-84
2022/07/13 04:00:13;;;;;;;6.20;1.95;;;;;;;16.69;55.74;100327.22;4393260;32;34211;-83
2022/07/13 04:02:41;;;;;;;7.20;1.45;;;;;;;17.33;54.75;100333.94;4412809;32;33638;-85
2022/07/13 04:05:11;;;;;;;2.20;1.58;;;;;;;17.26;55.07;100332.59;4399062;32;32562;-84
2022/07/13 04:07:41;;;;;;;5.75;1.73;;;;;;;17.59;54.53;100329.59;4400323;32;32721;-85
2022/07/13 04:10:10;;;;;;;3.87;1.50;;;;;;;17.67;53.71;100328.16;4398445;32;33060;-84
2022/07/13 04:12:42;;;;;;;2.83;1.55;;;;;;;17.79;52.58;100323.00;4406157;32;34032;-85
2022/07/13 04:15:11;;;;;;;3.45;1.37;;;;;;;17.95;50.96;100318.37;4395021;32;32944;-85
2022/07/13 04:17:41;;;;;;;2.08;1.05;;;;;;;18.05;49.20;100321.28;4399092;32;33833;-85
2022/07/13 04:20:10;;;;;;;1.70;0.90;;;;;;;18.56;49.74;100311.56;4401165;32;33977;-84
2022/07/13 04:22:42;;;;;;;1.92;0.88;;;;;;;18.87;48.98;100315.66;4414638;32;33897;-84
2022/07/13 04:25:11;;;;;;;1.92;1.35;;;;;;;18.95;49.27;100304.44;4416259;32;33974;-85
2022/07/13 04:27:41;;;;;;;5.65;1.33;;;;;;;19.23;48.20;100302.44;4399369;32;33263;-84
2022/07/13 04:30:11;;;;;;;2.60;1.25;;;;;;;19.67;49.55;100310.84;4416393;32;34391;-85
2022/07/13 04:32:41;;;;;;;3.35;1.37;;;;;;;19.92;47.31;100306.34;4399550;32;32733;-85
2022/07/13 04:35:10;;;;;;;4.15;1.30;;;;;;;19.97;47.30;100306.84;4412715;32;32595;-85
2022/07/13 04:37:39;;;;;;;5.97;1.35;;;;;;;20.06;46.67;100306.16;4400863;32;34134;-84
2022/07/13 04:40:08;;;;;;;3.53;1.02;;;;;;;20.32;47.24;100300.66;4400038;32;34081;-85
2022/07/13 04:42:36;;;;;;;2.15;0.93;;;;;;;20.11;46.31;100306.69;4413549;32;34538;-84
2022/07/13 04:45:12;;;;;;;3.15;1.20;;;;;;;20.43;45.84;100296.19;4397385;32;33774;-85
2022/07/13 04:47:41;;;;;;;1.55;0.70;;;;;;;20.50;44.90;100301.09;4393924;32;32942;-85
2022/07/13 04:50:10;;;;;;;1.70;0.90;;;;;;;20.78;43.85;100302.50;4415726;32;32934;-84
2022/07/13 04:52:38;;;;;;;3.17;1.00;;;;;;;20.70;43.66;100298.59;4413314;32;33877;-84
2022/07/13 04:55:07;;;;;;;1.27;0.70;;;;;;;20.71;43.42;100307.50;4403509;32;32762;-85
2022/07/13 04:57:36;;;;;;;1.58;0.68;;;;;;;20.95;42.36;100319.00;4400552;32;30681;-84
2022/07/13 05:00:09;;;;;;;8.75;1.05;;;;;;;21.05;41.83;100312.91;4404431;32;33852;-84
2022/07/13 05:02:41;;;;;;;2.72;1.00;;;;;;;20.97;42.36;100314.34;4390934;32;32832;-84
2022/07/13 05:05:10;;;;;;;3.65;0.82;;;;;;;21.23;42.81;100319.50;4403867;32;33514;-85
2022/07/13 05:07:39;;;;;;;3.92;0.52;;;;;;;21.65;40.10;100319.75;4395819;32;33750;-84
2022/07/13 05:12:54;;;;;;;1.27;0.70;;;;;;;21.72;39.32;100316.41;4407100;32;33236;-84
2022/07/13 05:15:45;;;;;;;2.12;0.70;;;;;;;21.79;39.50;100313.22;4414600;32;34254;-84
2022/07/13 05:18:14;;;;;;;3.65;0.70;;;;;;;21.86;39.45;100309.06;4404209;32;31967;-85
2022/07/13 05:20:44;;;;;;;2.17;0.70;;;;;;;22.16;38.91;100313.72;4418890;32;33896;-86
2022/07/13 05:23:12;;;;;;;4.72;0.90;;;;;;;22.32;38.26;100324.94;4413836;32;32836;-85
2022/07/13 05:25:44;;;;;;;2.03;0.80;;;;;;;22.09;38.83;100315.22;4414231;32;33457;-86
2022/07/13 05:28:12;;;;;;;3.58;0.60;;;;;;;22.37;38.33;100321.84;4413289;32;33879;-83
2022/07/13 05:30:40;;;;;;;1.05;0.60;;;;;;;22.50;38.53;100309.03;4403897;32;32729;-84
2022/07/13 05:33:09;;;;;;;2.42;0.70;;;;;;;22.55;38.91;100301.44;4414294;32;33168;-85
2022/07/13 05:35:38;;;;;;;3.22;0.95;;;;;;;22.77;38.17;100302.28;4400770;32;33975;-85
2022/07/13 05:38:06;;;;;;;4.18;1.25;;;;;;;22.73;36.59;100301.69;4411354;32;33947;-85
2022/07/13 05:40:37;;;;;;;2.47;0.80;;;;;;;22.74;37.61;100303.38;4388536;32;33406;-85
2022/07/13 05:43:14;;;;;;;2.45;0.65;;;;;;;23.20;36.69;100304.78;4403308;32;34282;-85
2022/07/13 05:45:42;;;;;;;3.10;0.70;;;;;;;23.06;36.72;100303.28;4399995;32;33997;-85
2022/07/13 05:48:11;;;;;;;2.08;0.85;;;;;;;23.19;36.01;100306.62;4403388;32;32634;-84
2022/07/13 05:50:51;;;;;;;3.15;0.70;;;;;;;23.11;35.69;100305.59;4400484;32;33980;-84
2022/07/13 05:53:41;;;;;;;3.10;0.88;;;;;;;22.94;37.05;100305.25;4401784;32;32854;-84
2022/07/13 05:56:09;;;;;;;4.90;1.12;;;;;;;23.07;36.20;100305.00;4404890;32;35166;-84
2022/07/13 05:58:38;;;;;;;3.67;0.80;;;;;;;22.96;35.96;100313.19;4395286;32;33139;-84
2022/07/13 06:01:07;;;;;;;3.85;0.62;;;;;;;23.24;36.26;100309.75;4412457;32;34104;-84
2022/07/13 06:03:37;;;;;;;1.48;0.80;;;;;;;23.45;37.00;100307.00;4391779;32;33058;-84
2022/07/13 06:06:08;;;;;;;1.55;0.90;;;;;;;23.54;35.81;100310.69;4385636;32;32833;-84
2022/07/13 06:08:40;;;;;;;5.47;0.82;;;;;;;23.81;36.36;100298.44;4406846;32;32858;-84
2022/07/13 06:11:08;;;;;;;7.50;0.80;;;;;;;23.92;36.48;100301.00;4417209;32;34533;-84
2022/07/13 06:13:41;;;;;;;0.68;0.40;;;;;;;24.16;34.73;100298.75;4394328;32;33433;-84
2022/07/13 06:16:11;;;;;;;3.87;0.85;;;;;;;24.15;33.84;100299.75;4400618;32;35343;-85
2022/07/13 06:18:43;;;;;;;2.37;0.62;;;;;;;24.54;35.06;100291.63;4401299;32;31623;-84
2022/07/13 06:21:18;;;;;;;1.15;0.73;;;;;;;24.74;34.39;100296.03;4401547;32;35648;-84
2022/07/13 06:23:51;;;;;;;1.48;0.65;;;;;;;24.99;34.67;100290.97;4391327;32;33406;-84
2022/07/13 06:26:31;;;;;;;3.53;0.80;;;;;;;25.02;34.64;100302.34;4401373;32;35038;-85
2022/07/13 06:29:01;;;;;;;1.75;1.02;;;;;;;25.19;33.30;100300.72;4375520;32;32740;-84
2022/07/13 06:31:29;;;;;;;1.35;0.57;;;;;;;24.91;33.02;100307.91;4409368;32;33258;-85
2022/07/13 06:33:57;;;;;;;1.45;0.90;;;;;;;25.14;33.48;100299.47;4402648;32;32941;-85
2022/07/13 06:36:25;;;;;;;3.22;1.08;;;;;;;25.41;32.64;100304.06;4415665;32;34063;-84
2022/07/13 06:38:53;;;;;;;2.70;0.90;;;;;;;25.33;33.03;100301.25;4401002;32;32845;-84
2022/07/13 06:41:24;;;;;;;2.85;1.00;;;;;;;25.01;32.76;100300.63;4395398;32;33382;-84
2022/07/13 06:43:52;;;;;;;1.10;0.70;;;;;;;25.11;33.06;100300.59;4397493;32;33748;-84
2022/07/13 06:46:20;;;;;;;5.18;0.90;;;;;;;25.08;33.96;100289.25;4389635;32;32130;-84
2022/07/13 06:48:57;;;;;;;6.50;1.00;;;;;;;25.58;33.16;100296.97;4415271;32;34177;-84
2022/07/13 06:54:13;;;;;;;1.55;0.85;;;;;;;25.53;33.40;100302.81;4385662;32;31888;-84
2022/07/13 06:56:47;;;;;;;1.70;0.90;;;;;;;25.53;32.44;100313.66;4391445;32;32936;-85
2022/07/13 06:59:16;;;;;;;4.53;0.60;;;;;;;26.01;33.06;100309.81;4394784;32;33808;-84
2022/07/13 07:01:44;;;;;;;5.12;1.15;;;;;;;25.81;31.87;100321.78;4394281;32;33512;-84
2022/07/13 07:04:18;;;;;;;2.65;0.90;;;;;;;25.88;32.42;100314.75;4396855;32;32306;-85
2022/07/13 07:06:46;;;;;;;3.50;0.68;;;;;;;26.41;32.44;100311.19;4400950;32;34027;-85
2022/07/13 07:09:16;;;;;;;3.15;0.68;;;;;;;26.44;31.43;100308.19;4377502;32;32857;-85
2022/07/13 07:11:46;;;;;;;1.92;0.60;;;;;;;26.62;30.69;100298.16;4390839;32;33414;-86
2022/07/13 07:14:15;;;;;;;3.53;0.68;;;;;;;26.37;30.84;100304.38;4381126;32;33528;-86
2022/07/13 07:16:43;;;;;;;2.37;1.20;;;;;;;26.30;30.58;100299.59;4390406;32;33317;-85
2022/07/13 07:19:15;;;;;;;1.48;0.82;;;;;;;26.48;30.78;100296.03;4400701;32;33468;-85
2022/07/13 07:21:56;;;;;;;4.07;0.75;;;;;;;26.85;31.37;100300.38;4388377;32;33966;-86
2022/07/13 07:24:26;;;;;;;4.05;0.60;;;;;;;27.11;31.96;100287.69;4384786;32;35995;-86
2022/07/13 07:27:02;;;;;;;3.90;0.75;;;;;;;27.30;30.52;100286.59;4396995;32;34934;-86
2022/07/13 07:29:33;;;;;;;4.95;0.88;;;;;;;27.05;29.70;100280.16;4387422;32;32816;-86
2022/07/13 07:32:01;;;;;;;1.45;0.70;;;;;;;26.80;30.96;100280.00;4398056;32;33153;-86
2022/07/13 07:34:33;;;;;;;1.73;0.82;;;;;;;27.23;30.13;100275.53;4387093;32;33768;-86
2022/07/13 07:37:01;;;;;;;4.20;0.73;;;;;;;27.08;29.64;100273.56;4383614;32;32531;-86
2022/07/13 07:39:36;;;;;;;6.97;1.87;;;;;;;27.42;29.64;100268.13;4383125;32;32804;-86
2022/07/13 07:42:12;;;;;;;1.77;0.80;;;;;;;27.56;29.54;100267.50;4395168;32;34872;-86
2022/07/13 07:44:45;;;;;;;0.70;0.65;;;;;;;27.54;31.56;100264.13;4391718;32;31850;-86
2022/07/13 07:47:15;;;;;;;1.65;1.10;;;;;;;27.41;29.70;100266.44;4392248;32;32622;-87
2022/07/13 07:49:45;;;;;;;2.65;0.73;;;;;;;27.86;30.74;100263.34;4395058;32;33424;-86
2022/07/13 07:52:19;;;;;;;2.35;0.93;;;;;;;27.78;29.64;100260.66;4394531;32;33510;-86
2022/07/13 07:55:13;;;;;;;1.35;0.60;;;;;;;27.90;29.37;100262.00;4400076;32;34066;-86
2022/07/13 07:57:46;;;;;;;1.45;0.90;;;;;;;28.13;29.92;100272.22;4400437;32;32641;-87
2022/07/13 08:00:27;;;;;;;1.85;0.80;;;;;;;28.23;28.81;100273.72;4403482;32;33316;-87
2022/07/13 08:02:57;;;;;;;1.33;0.68;;;;;;;27.87;29.62;100269.62;4419816;32;34267;-87
2022/07/13 08:05:33;;;;;;;1.45;0.50;;;;;;;28.25;29.41;100255.41;4402713;32;33250;-86
2022/07/13 08:08:04;;;;;;;1.42;0.70;;;;;;;28.38;29.60;100264.94;4394275;32;33671;-86
2022/07/13 08:10:34;;;;;;;;;;;;;;;28.62;29.56;100248.59;4377968;32;34164;-87
2022/07/13 08:13:03;;;;;;;3.75;0.55;;;;;;;29.09;30.27;100255.97;4419841;32;34415;-87
2022/07/13 08:15:32;;;;;;;2.17;0.50;;;;;;;28.97;28.23;100246.53;4375051;32;34056;-86
2022/07/13 08:20:49;;;;;;;3.97;1.25;;;;;;;29.10;27.79;100249.50;4404010;32;34665;-86
2022/07/13 08:26:05;;;;;;;3.45;0.75;;;;;;;29.17;27.66;100245.06;4389285;32;32539;-87
2022/07/13 08:28:41;;;;;;;3.33;0.70;;;;;;;29.33;27.95;100250.41;4389453;32;33610;-87
2022/07/13 08:31:16;;;;;;;1.77;0.45;;;;;;;29.30;29.01;100239.91;4387442;32;32922;-87
2022/07/13 08:39:23;;;;;;;2.72;0.82;;;;;;;29.43;27.25;100233.87;4404639;32;31947;-87
2022/07/13 08:41:57;;;;;;;2.33;0.50;;;;;;;29.70;28.60;100229.00;4400821;32;32522;-86
2022/07/13 08:49:49;;;;;;;1.95;0.70;;;;;;;29.53;27.53;100206.44;4402095;32;32279;-87
2022/07/13 08:52:18;;;;;;;0.77;0.52;;;;;;;29.32;27.29;100215.25;4397734;32;33192;-87
2022/07/13 08:54:46;;;;;;;0.98;0.60;;;;;;;29.04;28.69;100218.44;4394643;32;34001;-86
2022/07/13 08:57:17;;;;;;;4.28;0.70;;;;;;;29.47;27.57;100212.63;4387253;32;33531;-87
2022/07/13 08:59:47;;;;;;;1.67;0.62;;;;;;;29.54;26.92;100206.31;4400397;32;33770;-87
2022/07/13 09:02:20;;;;;;;1.08;0.70;;;;;;;29.39;27.08;100216.25;4401358;32;34563;-87
2022/07/13 09:07:35;;;;;;;0.82;0.50;;;;;;;29.85;26.61;100200.81;4387829;32;33067;-87
2022/07/13 09:10:19;;;;;;;1.75;0.60;;;;;;;29.91;26.83;100206.53;4400557;32;35072;-87
2022/07/13 09:12:47;;;;;;;;;;;;;;;29.91;26.94;100203.81;4400848;32;33811;-87
2022/07/13 09:15:16;;;;;;;1.75;0.47;;;;;;;29.90;27.28;100202.13;4397856;32;34331;-87
2022/07/13 09:17:47;;;;;;;6.25;1.10;;;;;;;30.14;26.64;100201.97;4389283;32;34414;-86
2022/07/13 09:20:21;;;;;;;2.22;0.68;;;;;;;29.80;26.53;100186.91;4402615;32;33465;-87
2022/07/13 09:28:27;;;;;;;1.77;0.70;;;;;;;29.83;25.69;100181.09;4419366;32;34544;-87
2022/07/13 09:33:39;;;;;;;3.65;0.80;;;;;;;30.06;25.41;100185.69;4398524;32;33181;-87
2022/07/13 09:36:20;;;;;;;0.43;0.43;;;;;;;30.28;25.17;100189.41;4423590;32;33582;-87
2022/07/13 09:38:53;;;;;;;0.75;0.50;;;;;;;30.23;25.13;100198.12;4402016;32;33978;-87
2022/07/13 09:41:22;;;;;;;;;;;;;;;30.22;25.79;100196.44;4390793;32;32576;-87
2022/07/13 09:46:53;;;;;;;7.43;1.20;;;;;;;30.74;24.26;100195.59;4400669;32;34009;-88
2022/07/13 09:49:32;;;;;;;0.82;0.50;;;;;;;30.31;24.44;100197.22;4391890;32;34011;-87
2022/07/13 09:52:03;;;;;;;4.72;0.68;;;;;;;30.65;24.46;100188.50;4392374;32;33703;-87
2022/07/13 09:54:39;;;;;;;1.40;0.55;;;;;;;30.96;24.87;100190.22;4401037;32;33907;-86
2022/07/13 09:57:10;;;;;;;0.77;0.40;;;;;;;31.31;23.80;100191.31;4393840;32;33193;-87
2022/07/13 09:59:49;;;;;;;2.55;0.50;;;;;;;31.12;23.33;100181.81;4384295;32;33423;-87
2022/07/13 10:02:23;;;;;;;4.68;0.45;;;;;;;30.93;23.95;100174.22;4405195;32;33278;-87
2022/07/13 10:04:53;;;;;;;2.22;0.62;;;;;;;30.93;25.13;100182.41;4405608;32;33950;-88
2022/07/13 10:07:26;;;;;;;0.60;0.40;;;;;;;31.18;22.98;100178.31;4386996;32;33053;-88
2022/07/13 10:09:59;;;;;;;2.90;0.65;;;;;;;30.69;22.92;100181.66;4416589;32;33845;-87
2022/07/13 10:12:33;;;;;;;2.40;0.75;;;;;;;30.37;24.08;100187.44;4394211;32;32701;-87
2022/07/13 10:15:04;;;;;;;0.60;0.60;;;;;;;30.87;23.91;100181.28;4403672;32;34638;-87
2022/07/13 10:17:38;;;;;;;1.75;0.40;;;;;;;30.72;24.89;100166.84;4393550;32;33358;-87
2022/07/13 10:20:17;;;;;;;1.58;0.47;;;;;;;30.72;24.92;100177.75;4416763;32;34355;-88
2022/07/13 10:22:48;;;;;;;2.05;0.37;;;;;;;30.74;24.43;100165.59;4405210;32;33714;-87
2022/07/13 10:25:18;;;;;;;0.93;0.85;;;;;;;31.15;23.63;100180.59;4402612;32;33574;-87
2022/07/13 10:28:03;;;;;;;1.08;0.68;;;;;;;31.17;23.27;100173.91;4399162;32;34718;-87
2022/07/13 10:33:19;;;;;;;3.55;0.70;;;;;;;30.87;23.79;100161.38;4391963;32;33922;-87
2022/07/13 10:35:54;;;;;;;4.75;0.45;;;;;;;31.43;24.16;100176.13;4416247;32;33948;-87
2022/07/13 10:38:27;;;;;;;2.75;0.80;;;;;;;31.53;22.62;100176.66;4403068;32;32599;-87
2022/07/13 10:41:15;;;;;;;;;;;;;;;31.54;23.25;100170.16;4394470;32;32508;-87
2022/07/13 10:43:53;;;;;;;2.47;0.50;;;;;;;31.94;23.33;100165.09;4403330;32;32285;-87
2022/07/13 10:46:45;;;;;;;2.37;0.65;;;;;;;31.81;26.34;100163.06;4394485;32;34649;-87
2022/07/13 10:49:47;;;;;;;2.25;0.60;;;;;;;32.20;23.25;100153.53;4390614;32;33004;-87
2022/07/13 10:52:22;;;;;;;1.87;1.25;;;;;;;31.77;24.88;100161.78;4396896;32;33474;-87
2022/07/13 10:55:11;;;;;;;0.65;0.50;;;;;;;31.93;23.44;100129.78;4390855;32;32977;-87
2022/07/13 10:57:44;;;;;;;0.93;0.35;;;;;;;32.27;21.75;100148.97;4407014;32;33219;-86
2022/07/13 11:00:37;;;;;;;1.17;0.43;;;;;;;31.83;21.28;100158.28;4397804;32;33864;-87
2022/07/13 11:06:05;;;;;;;3.17;0.80;;;;;;;31.17;23.17;100156.69;4391796;32;32173;-88
2022/07/13 11:08:38;;;;;;;1.33;0.70;;;;;;;31.60;23.55;100154.88;4379124;32;33765;-87
2022/07/13 11:11:14;;;;;;;;;;;;;;;31.39;22.69;100172.09;4391414;32;33339;-87
2022/07/13 11:13:46;;;;;;;1.15;0.60;;;;;;;31.65;22.05;100157.88;4408583;32;33722;-87
2022/07/13 11:16:52;;;;;;;4.78;0.77;;;;;;;31.74;22.74;100145.78;4382831;32;31938;-88
2022/07/13 11:19:49;;;;;;;1.05;0.40;;;;;;;31.70;21.14;100139.00;4391114;32;33574;-87
2022/07/13 11:22:18;;;;;;;1.58;0.40;;;;;;;31.63;20.90;100146.31;4396080;32;32966;-87
2022/07/13 11:25:15;;;;;;;1.17;0.50;;;;;;;32.32;20.64;100146.47;4395766;32;32760;-87
2022/07/13 11:27:54;;;;;;;0.55;0.52;;;;;;;32.91;20.45;100144.34;4411479;32;32648;-87
2022/07/13 11:30:27;;;;;;;2.05;0.32;;;;;;;33.12;20.34;100145.03;4402326;32;33010;-87
2022/07/13 11:32:56;;;;;;;3.58;0.50;;;;;;;33.23;19.78;100137.28;4395588;32;33307;-87
2022/07/13 11:35:26;;;;;;;1.12;0.57;;;;;;;33.24;18.87;100141.72;4393747;32;33797;-87
2022/07/13 11:37:59;;;;;;;2.55;0.40;;;;;;;32.35;19.21;100124.22;4399813;32;31300;-87
2022/07/13 11:40:35;;;;;;;2.40;0.75;;;;;;;32.42;18.98;100112.50;4385523;32;32647;-87
2022/07/13 11:43:09;;;;;;;4.37;0.35;;;;;;;32.70;19.07;100126.94;4376454;32;32183;-87
2022/07/13 11:45:44;;;;;;;4.72;1.02;;;;;;;32.38;18.99;100112.09;4367291;32;33205;-87
2022/07/13 11:48:15;;;;;;;5.82;0.52;;;;;;;32.35;19.56;100110.56;4391683;32;32750;-87
2022/07/13 11:50:48;;;;;;;1.83;0.57;;;;;;;32.12;19.49;100109.97;4402619;32;34253;-87
2022/07/13 11:53:29;;;;;;;1.17;0.30;;;;;;;32.29;18.90;100114.09;4403480;32;33745;-87
2022/07/13 11:56:03;;;;;;;0.50;0.40;;;;;;;32.09;19.48;100113.97;4407590;32;32566;-87
2022/07/13 11:58:33;;;;;;;3.80;0.40;;;;;;;32.58;19.18;100106.72;4407413;32;34822;-87
2022/07/13 12:01:11;;;;;;;1.85;0.40;;;;;;;32.68;18.07;100118.13;4399570;32;32428;-87
2022/07/13 12:03:40;;;;;;;0.75;0.57;;;;;;;32.59;17.94;100109.25;4403398;32;32480;-87
2022/07/13 12:06:14;;;;;;;4.03;0.73;;;;;;;32.31;18.15;100106.53;4408792;32;32417;-87
2022/07/13 12:08:48;;;;;;;2.42;0.68;;;;;;;32.45;17.74;100107.47;4392433;32;33063;-87
2022/07/13 12:11:19;;;;;;;3.12;0.47;;;;;;;32.45;18.17;100110.22;4406834;32;33728;-87
2022/07/13 12:13:51;;;;;;;1.42;0.40;;;;;;;32.60;18.06;100115.53;4397519;32;33000;-88
2022/07/13 12:16:25;;;;;;;0.30;0.30;;;;;;;32.54;17.53;100097.22;4399221;32;33754;-87
2022/07/13 12:19:01;;;;;;;1.20;0.75;;;;;;;32.57;18.29;100103.16;4418520;32;33018;-87
2022/07/13 12:21:32;;;;;;;0.95;0.50;;;;;;;32.67;17.58;100107.41;4412635;32;33970;-88
2022/07/13 12:24:04;;;;;;;4.60;0.45;;;;;;;32.85;17.74;100108.53;4406437;32;33110;-88
2022/07/13 12:26:38;;;;;;;0.90;0.40;;;;;;;32.60;19.60;100110.91;4405959;32;33279;-87
2022/07/13 12:29:31;;;;;;;4.12;0.30;;;;;;;32.85;18.42;100119.47;4396624;32;32650;-87
2022/07/13 12:32:05;;;;;;;0.80;0.45;;;;;;;32.76;17.39;100104.28;4393250;32;34720;-87